createdAt,value
2023-04-02T00:01:02.940Z,1.98
2023-04-02T00:03:44.982Z,2.00
2023-04-02T00:06:33.254Z,1.40
2023-04-02T00:09:23.309Z,1.90
2023-04-02T00:11:55.656Z,1.52
2023-04-02T00:14:33.681Z,1.63
2023-04-02T00:17:03.558Z,1.38
2023-04-02T00:19:45.644Z,1.45
2023-04-02T00:22:21.232Z,1.23
2023-04-02T00:24:52.078Z,1.63
2023-04-02T00:27:20.016Z,1.65
2023-04-02T00:29:58.797Z,1.67
2023-04-02T00:32:28.131Z,1.45
2023-04-02T00:34:58.676Z,1.92
2023-04-02T00:37:28.295Z,1.60
2023-04-02T00:40:07.173Z,1.88
2023-04-02T00:42:35.885Z,1.90
2023-04-02T00:45:04.220Z,1.80
2023-04-02T00:47:37.598Z,1.63
2023-04-02T00:50:04.610Z,1.70
2023-04-02T00:52:35.887Z,2.03
2023-04-02T00:55:17.730Z,1.73
2023-04-02T00:57:45.579Z,1.70
2023-04-02T01:00:19.236Z,1.70
2023-04-02T01:03:16.447Z,1.67
2023-04-02T01:05:45.335Z,1.60
2023-04-02T01:08:34.956Z,1.35
2023-04-02T01:11:19.452Z,1.25
2023-04-02T01:13:53.578Z,1.67
2023-04-02T01:16:42.207Z,1.50
2023-04-02T01:19:53.594Z,1.70
2023-04-02T01:22:30.952Z,2.10
2023-04-02T01:24:58.246Z,2.00
2023-04-02T01:27:34.794Z,2.00
2023-04-02T01:30:03.130Z,1.90
2023-04-02T01:32:30.943Z,1.88
2023-04-02T01:34:58.304Z,2.15
2023-04-02T01:37:49.499Z,2.15
2023-04-02T01:40:17.210Z,1.95
2023-04-02T01:43:05.291Z,2.00
2023-04-02T01:45:32.174Z,2.17
2023-04-02T01:47:59.211Z,2.13
2023-04-02T01:50:33.461Z,2.10
2023-04-02T01:53:03.409Z,2.25
2023-04-02T01:55:53.965Z,2.55
2023-04-02T01:58:25.373Z,1.98
2023-04-02T02:01:14.839Z,1.90
2023-04-02T02:03:43.623Z,2.13
2023-04-02T02:06:16.602Z,2.28
2023-04-02T02:08:58.205Z,2.88
2023-04-02T02:11:28.557Z,2.55
2023-04-02T02:14:00.991Z,2.30
2023-04-02T02:16:32.017Z,2.33
2023-04-02T02:19:03.015Z,2.55
2023-04-02T02:21:49.609Z,2.88
2023-04-02T02:24:37.064Z,2.30
2023-04-02T02:27:18.781Z,2.90
2023-04-02T02:29:49.436Z,2.20
2023-04-02T02:32:17.918Z,2.63
2023-04-02T02:34:54.405Z,2.22
2023-04-02T02:37:29.343Z,2.10
2023-04-02T02:40:00.331Z,2.40
2023-04-02T02:42:32.732Z,2.65
2023-04-02T02:45:01.964Z,2.38
2023-04-02T02:49:59.678Z,2.25
2023-04-02T02:52:30.966Z,2.17
2023-04-02T02:55:16.099Z,2.00
2023-04-02T02:57:48.349Z,2.60
2023-04-02T03:00:17.715Z,3.00
2023-04-02T03:02:44.754Z,2.60
2023-04-02T03:05:17.772Z,2.80
2023-04-02T03:07:44.362Z,2.35
2023-04-02T03:10:19.437Z,2.85
2023-04-02T03:12:54.563Z,2.72
2023-04-02T03:15:46.756Z,2.72
2023-04-02T03:18:45.607Z,2.63
2023-04-02T03:21:22.489Z,2.70
2023-04-02T03:24:03.265Z,2.50
2023-04-02T03:26:44.281Z,2.50
2023-04-02T03:29:22.449Z,2.78
2023-04-02T03:31:56.109Z,2.38
2023-04-02T03:34:33.198Z,2.70
2023-04-02T03:37:05.487Z,3.28
2023-04-02T03:39:36.204Z,2.92
2023-04-02T03:42:10.198Z,3.92
2023-04-02T03:44:44.643Z,2.95
2023-04-02T03:47:31.158Z,3.10
2023-04-02T03:50:06.856Z,2.63
2023-04-02T03:52:36.789Z,3.13
2023-04-02T03:55:16.152Z,3.17
2023-04-02T03:58:06.998Z,3.17
2023-04-02T04:00:50.756Z,3.33
2023-04-02T04:03:25.261Z,3.65
2023-04-02T04:05:57.447Z,3.47
2023-04-02T04:08:30.601Z,3.90
2023-04-02T04:11:01.880Z,4.25
2023-04-02T04:13:56.743Z,4.13
2023-04-02T04:16:32.440Z,3.50
2023-04-02T04:19:18.116Z,3.63
2023-04-02T04:21:46.175Z,4.10
2023-04-02T04:24:22.334Z,3.70
2023-04-02T04:27:17.113Z,3.72
2023-04-02T04:29:57.906Z,4.13
2023-04-02T04:32:33.645Z,4.00
2023-04-02T04:35:15.952Z,3.45
2023-04-02T04:37:44.916Z,4.18
2023-04-02T04:40:34.263Z,3.80
2023-04-02T04:43:06.164Z,3.10
2023-04-02T04:45:41.605Z,3.72
2023-04-02T04:48:31.380Z,3.55
2023-04-02T04:51:01.842Z,3.20
2023-04-02T04:53:30.434Z,3.30
2023-04-02T04:56:18.018Z,3.45
2023-04-02T04:59:15.779Z,3.60
2023-04-02T05:02:05.998Z,3.10
2023-04-02T05:04:38.189Z,2.92
2023-04-02T05:07:13.930Z,2.78
2023-04-02T05:09:45.874Z,2.88
2023-04-02T05:12:43.776Z,2.63
2023-04-02T05:15:32.175Z,2.80
2023-04-02T05:18:20.835Z,2.67
2023-04-02T05:21:03.953Z,2.45
2023-04-02T05:23:34.251Z,2.60
2023-04-02T05:26:13.756Z,2.88
2023-04-02T05:28:50.861Z,2.80
2023-04-02T05:31:26.664Z,3.45
2023-04-02T05:33:55.028Z,2.72
2023-04-02T05:36:27.896Z,2.80
2023-04-02T05:38:56.422Z,2.15
2023-04-02T05:41:27.137Z,2.33
2023-04-02T05:43:59.842Z,2.47
2023-04-02T05:46:30.956Z,2.67
2023-04-02T05:48:59.150Z,2.42
2023-04-02T05:51:47.367Z,2.42
2023-04-02T05:54:29.449Z,2.47
2023-04-02T05:57:02.926Z,2.35
2023-04-02T05:59:34.108Z,2.38
2023-04-02T06:02:32.828Z,2.17
2023-04-02T06:05:20.328Z,2.45
2023-04-02T06:08:03.689Z,1.80
2023-04-02T06:10:35.277Z,2.00
2023-04-02T06:13:08.823Z,2.15
2023-04-02T06:15:37.939Z,2.35
2023-04-02T06:18:20.613Z,3.20
2023-04-02T06:20:47.504Z,3.42
2023-04-02T06:23:24.430Z,2.50
2023-04-02T06:26:14.678Z,4.25
2023-04-02T06:28:45.723Z,13.10
2023-04-02T06:31:23.721Z,8.50
2023-04-02T06:33:52.422Z,3.13
2023-04-02T06:36:20.408Z,2.20
2023-04-02T06:38:49.155Z,1.50
2023-04-02T06:41:22.014Z,2.47
2023-04-02T06:44:20.832Z,2.70
2023-04-02T06:46:54.045Z,2.70
2023-04-02T06:49:33.242Z,3.03
2023-04-02T06:52:02.225Z,2.15
2023-04-02T06:54:28.850Z,1.63
2023-04-02T06:56:58.919Z,1.30
2023-04-02T06:59:26.016Z,1.60
2023-04-02T07:01:58.713Z,1.60
2023-04-02T07:04:26.003Z,1.25
2023-04-02T07:06:53.306Z,1.63
2023-04-02T07:09:19.839Z,1.60
2023-04-02T07:11:46.411Z,1.73
2023-04-02T07:14:13.095Z,1.35
2023-04-02T07:16:41.029Z,1.35
2023-04-02T07:19:07.860Z,1.35
2023-04-02T07:21:34.351Z,1.50
2023-04-02T07:24:00.899Z,1.30
2023-04-02T07:26:28.235Z,1.45
2023-04-02T07:28:55.835Z,1.40
2023-04-02T07:31:25.902Z,1.80
2023-04-02T07:33:54.946Z,1.80
2023-04-02T07:36:23.819Z,1.50
2023-04-02T07:38:50.775Z,1.90
2023-04-02T07:41:18.314Z,1.58
2023-04-02T07:43:45.554Z,1.88
2023-04-02T07:46:14.961Z,1.30
2023-04-02T07:48:41.500Z,1.30
2023-04-02T07:51:23.518Z,1.30
2023-04-02T07:53:51.168Z,1.20
2023-04-02T07:56:19.987Z,1.10
2023-04-02T07:58:47.381Z,1.30
2023-04-02T08:01:26.490Z,1.30
2023-04-02T08:03:54.976Z,1.60
2023-04-02T08:06:22.694Z,1.10
2023-04-02T08:08:49.575Z,1.15
2023-04-02T08:11:16.469Z,0.95
2023-04-02T08:13:43.468Z,0.98
2023-04-02T08:16:10.700Z,1.67
2023-04-02T08:18:37.311Z,1.50
2023-04-02T08:21:07.929Z,1.40
2023-04-02T08:23:35.823Z,1.10
2023-04-02T08:26:02.617Z,0.98
2023-04-02T08:28:29.056Z,1.10
2023-04-02T08:30:55.629Z,1.10
2023-04-02T08:33:22.101Z,1.52
2023-04-02T08:35:49.617Z,0.88
2023-04-02T08:38:21.622Z,1.02
2023-04-02T08:40:51.617Z,1.10
2023-04-02T08:43:30.972Z,1.10
2023-04-02T08:46:15.527Z,1.02
2023-04-02T08:48:47.431Z,1.63
2023-04-02T08:51:26.627Z,2.10
2023-04-02T08:54:22.298Z,1.33
2023-04-02T08:57:03.109Z,2.30
2023-04-02T09:00:13.943Z,1.77
2023-04-02T09:02:47.319Z,1.40
2023-04-02T09:05:22.988Z,1.00
2023-04-02T09:07:52.413Z,1.35
2023-04-02T09:10:19.338Z,0.90
2023-04-02T09:12:51.141Z,0.90
2023-04-02T09:15:26.215Z,0.90
2023-04-02T09:18:00.887Z,1.10
2023-04-02T09:20:29.284Z,1.27
2023-04-02T09:22:56.724Z,1.30
2023-04-02T09:25:30.405Z,1.17
2023-04-02T09:28:00.721Z,1.40
2023-04-02T09:30:36.822Z,1.30
2023-04-02T09:33:09.049Z,1.73
2023-04-02T09:35:53.250Z,1.70
2023-04-02T09:38:21.924Z,2.88
2023-04-02T09:40:54.620Z,2.10
2023-04-02T09:43:22.514Z,1.70
2023-04-02T09:45:56.491Z,1.27
2023-04-02T09:48:30.564Z,1.30
2023-04-02T09:51:16.632Z,0.93
2023-04-02T09:54:07.701Z,2.55
2023-04-02T09:56:39.203Z,5.43
2023-04-02T09:59:21.653Z,1.63
2023-04-02T10:01:54.157Z,1.80
2023-04-02T10:04:50.218Z,1.33
2023-04-02T10:07:38.022Z,1.45
2023-04-02T10:10:27.618Z,1.35
2023-04-02T10:13:23.795Z,1.50
2023-04-02T10:15:53.334Z,1.60
2023-04-02T10:18:46.709Z,1.20
2023-04-02T10:21:18.291Z,1.48
2023-04-02T10:23:44.912Z,2.00
2023-04-02T10:26:35.891Z,1.63
2023-04-02T10:29:23.804Z,1.25
2023-04-02T10:32:14.914Z,1.17
2023-04-02T10:34:52.082Z,1.20
2023-04-02T10:37:45.788Z,1.40
2023-04-02T10:40:23.347Z,1.02
2023-04-02T10:43:07.179Z,0.90
2023-04-02T10:45:36.857Z,1.55
2023-04-02T10:48:11.363Z,1.17
2023-04-02T10:50:53.356Z,1.13
2023-04-02T10:53:26.235Z,1.30
2023-04-02T10:55:56.225Z,1.00
2023-04-02T10:58:26.644Z,1.35
2023-04-02T11:00:59.421Z,1.10
2023-04-02T11:03:53.071Z,0.90
2023-04-02T11:06:32.361Z,0.80
2023-04-02T11:09:04.930Z,1.15
2023-04-02T11:11:38.590Z,1.30
2023-04-02T11:14:20.905Z,1.45
2023-04-02T11:16:52.022Z,1.08
2023-04-02T11:19:18.511Z,1.20
2023-04-02T11:21:59.954Z,1.20
2023-04-02T11:24:31.655Z,1.33
2023-04-02T11:27:10.374Z,1.00
2023-04-02T11:29:44.560Z,1.20
2023-04-02T11:32:20.631Z,1.33
2023-04-02T11:34:51.394Z,1.10
2023-04-02T11:37:29.363Z,1.10
2023-04-02T11:39:59.638Z,1.13
2023-04-02T11:42:32.640Z,1.00
2023-04-02T11:45:21.313Z,1.00
2023-04-02T11:48:01.354Z,0.98
2023-04-02T11:50:30.011Z,1.02
2023-04-02T11:53:02.673Z,1.00
2023-04-02T11:55:36.952Z,0.75
2023-04-02T11:58:28.248Z,0.80
2023-04-02T12:01:33.391Z,0.95
2023-04-02T12:04:33.793Z,0.93
2023-04-02T12:07:10.814Z,1.08
2023-04-02T12:09:50.546Z,1.10
2023-04-02T12:12:29.149Z,1.00
2023-04-02T12:14:57.700Z,0.90
2023-04-02T12:17:31.630Z,0.90
2023-04-02T12:20:09.668Z,0.88
2023-04-02T12:22:40.468Z,0.95
2023-04-02T12:25:26.837Z,1.10
2023-04-02T12:28:28.997Z,1.00
2023-04-02T12:31:18.807Z,1.17
2023-04-02T12:33:45.939Z,1.25
2023-04-02T12:36:14.585Z,1.10
2023-04-02T12:38:50.056Z,0.98
2023-04-02T12:41:27.557Z,1.10
2023-04-02T12:44:02.666Z,1.00
2023-04-02T12:46:31.608Z,0.77
2023-04-02T12:49:22.851Z,0.80
2023-04-02T12:51:52.040Z,1.33
2023-04-02T12:54:20.958Z,0.80
2023-04-02T12:56:51.765Z,1.40
2023-04-02T12:59:30.389Z,0.80
2023-04-02T13:02:01.103Z,0.85
2023-04-02T13:04:28.324Z,0.90
2023-04-02T13:06:56.624Z,1.23
2023-04-02T13:09:30.046Z,0.95
2023-04-02T13:11:58.218Z,1.30
2023-04-02T13:14:27.168Z,1.33
2023-04-02T13:16:55.287Z,1.38
2023-04-02T13:19:33.607Z,1.40
2023-04-02T13:22:02.820Z,1.30
2023-04-02T13:24:31.800Z,1.10
2023-04-02T13:27:01.067Z,1.20
2023-04-02T13:29:36.735Z,1.13
2023-04-02T13:32:11.830Z,1.02
2023-04-02T13:34:38.415Z,1.20
2023-04-02T13:37:04.883Z,1.17
2023-04-02T13:39:31.465Z,1.00
2023-04-02T13:42:00.528Z,1.27
2023-04-02T13:46:55.781Z,1.42
2023-04-02T13:49:24.535Z,1.35
2023-04-02T13:51:54.555Z,1.30
2023-04-02T13:54:21.311Z,1.30
2023-04-02T13:56:47.878Z,1.48
2023-04-02T13:59:14.384Z,1.33
2023-04-02T14:01:43.176Z,1.50
2023-04-02T14:04:13.734Z,1.70
2023-04-02T14:07:05.840Z,2.10
2023-04-02T14:10:09.834Z,1.70
2023-04-02T14:13:05.682Z,1.70
2023-04-02T14:15:56.544Z,1.40
2023-04-02T14:18:29.213Z,1.60
2023-04-02T14:21:49.933Z,1.40
2023-04-02T14:24:58.176Z,1.13
2023-04-02T14:27:45.967Z,1.10
2023-04-02T14:30:16.778Z,1.40
2023-04-02T14:32:59.214Z,1.30
2023-04-02T14:35:37.255Z,1.20
2023-04-02T14:38:43.154Z,1.05
2023-04-02T14:41:22.427Z,1.10
2023-04-02T14:43:57.746Z,0.95
2023-04-02T14:46:26.484Z,1.02
2023-04-02T14:48:56.569Z,1.10
2023-04-02T14:51:44.191Z,1.17
2023-04-02T14:54:16.548Z,1.25
2023-04-02T14:56:54.389Z,1.10
2023-04-02T14:59:46.043Z,1.10
2023-04-02T15:02:38.185Z,0.85
2023-04-02T15:05:23.002Z,1.05
2023-04-02T15:07:59.361Z,1.13
2023-04-02T15:10:31.472Z,1.20
2023-04-02T15:13:00.599Z,1.10
2023-04-02T15:16:14.703Z,1.10
2023-04-02T15:18:41.518Z,1.13
2023-04-02T15:21:29.738Z,1.40
2023-04-02T15:24:02.198Z,1.30
2023-04-02T15:26:38.223Z,1.25
2023-04-02T15:29:41.136Z,1.20
2023-04-02T15:32:22.478Z,1.20
2023-04-02T15:37:34.858Z,1.05
2023-04-02T15:40:44.905Z,1.40
2023-04-02T15:43:55.956Z,1.30
2023-04-02T15:46:23.146Z,2.00
2023-04-02T15:49:20.726Z,2.88
2023-04-02T15:51:50.300Z,3.78
2023-04-02T15:54:22.790Z,2.38
2023-04-02T15:57:01.529Z,1.90
2023-04-02T15:59:41.887Z,1.75
2023-04-02T16:02:46.264Z,1.50
2023-04-02T16:05:37.975Z,1.20
2023-04-02T16:08:22.849Z,1.05
2023-04-02T16:10:49.369Z,1.48
2023-04-02T16:13:22.120Z,1.50
2023-04-02T16:16:03.789Z,1.40
2023-04-02T16:18:36.576Z,1.40
2023-04-02T16:21:03.709Z,1.25
2023-04-02T16:23:38.426Z,1.30
2023-04-02T16:26:12.905Z,1.20
2023-04-02T16:29:16.714Z,1.42
2023-04-02T16:32:14.113Z,1.60
2023-04-02T16:35:32.402Z,1.40
2023-04-02T16:38:02.440Z,1.88
2023-04-02T16:40:41.411Z,1.88
2023-04-02T16:43:17.031Z,1.63
2023-04-02T16:45:57.604Z,1.25
2023-04-02T16:48:50.544Z,1.25
2023-04-02T16:51:26.412Z,1.40
2023-04-02T16:54:16.367Z,1.70
2023-04-02T16:56:59.515Z,1.40
2023-04-02T16:59:50.309Z,1.60
2023-04-02T17:02:33.988Z,1.23
2023-04-02T17:05:09.702Z,1.30
2023-04-02T17:07:48.893Z,1.30
2023-04-02T17:10:30.566Z,1.55
2023-04-02T17:13:23.920Z,1.33
2023-04-02T17:16:00.238Z,1.20
2023-04-02T17:18:27.069Z,1.20
2023-04-02T17:20:54.500Z,1.17
2023-04-02T17:23:20.994Z,1.20
2023-04-02T17:25:57.780Z,1.83
2023-04-02T17:28:36.675Z,1.33
2023-04-02T17:31:25.246Z,1.38
2023-04-02T17:33:51.872Z,1.40
2023-04-02T17:36:27.518Z,1.30
2023-04-02T17:39:23.334Z,1.48
2023-04-02T17:42:07.812Z,1.23
2023-04-02T17:44:52.466Z,1.60
2023-04-02T17:47:46.888Z,1.70
2023-04-02T17:50:37.931Z,1.75
2023-04-02T17:53:16.533Z,1.35
2023-04-02T17:55:58.014Z,1.60
2023-04-02T17:58:43.522Z,1.48
2023-04-02T18:01:30.393Z,1.45
2023-04-02T18:03:59.609Z,1.10
2023-04-02T18:09:20.444Z,1.65
2023-04-02T18:11:55.821Z,1.90
2023-04-02T18:14:39.692Z,2.40
2023-04-02T18:17:21.174Z,1.73
2023-04-02T18:19:58.421Z,1.80
2023-04-02T18:22:37.470Z,1.63
2023-04-02T18:25:28.062Z,1.73
2023-04-02T18:28:02.901Z,1.50
2023-04-02T18:30:36.077Z,1.50
2023-04-02T18:33:09.065Z,1.67
2023-04-02T18:35:35.520Z,1.45
2023-04-02T18:38:34.341Z,1.60
2023-04-02T18:41:19.125Z,1.77
2023-04-02T18:44:22.988Z,1.27
2023-04-02T18:46:54.222Z,1.75
2023-04-02T18:49:26.322Z,1.88
2023-04-02T18:51:58.549Z,1.80
2023-04-02T18:54:39.412Z,1.27
2023-04-02T18:57:15.595Z,1.73
2023-04-02T18:59:57.443Z,1.88
2023-04-02T19:02:40.808Z,2.25
2023-04-02T19:05:24.002Z,9.55
2023-04-02T19:07:55.130Z,5.10
2023-04-02T19:10:38.110Z,4.32
2023-04-02T19:13:19.615Z,1.63
2023-04-02T19:15:52.526Z,4.43
2023-04-02T19:18:43.202Z,2.58
2023-04-02T19:21:22.224Z,2.08
2023-04-02T19:24:02.379Z,3.03
2023-04-02T19:26:53.751Z,1.55
2023-04-02T19:29:39.190Z,1.30
2023-04-02T19:32:18.034Z,0.93
2023-04-02T19:35:02.722Z,1.30
2023-04-02T19:37:48.599Z,0.90
2023-04-02T19:40:19.610Z,2.08
2023-04-02T19:42:51.938Z,0.80
2023-04-02T19:45:36.338Z,0.75
2023-04-02T19:48:28.984Z,1.25
2023-04-02T19:50:55.517Z,0.82
2023-04-02T19:53:22.038Z,1.10
2023-04-02T19:55:48.697Z,0.60
2023-04-02T19:58:31.049Z,0.70
2023-04-02T20:00:57.759Z,1.08
2023-04-02T20:03:24.727Z,0.60
2023-04-02T20:05:51.271Z,0.63
2023-04-02T20:08:17.889Z,0.70
2023-04-02T20:10:45.383Z,1.38
2023-04-02T20:13:12.183Z,0.90
2023-04-02T20:15:41.774Z,1.00
2023-04-02T20:18:09.491Z,0.98
2023-04-02T20:20:37.082Z,0.68
2023-04-02T20:23:03.772Z,0.70
2023-04-02T20:25:30.400Z,0.82
2023-04-02T20:27:56.965Z,0.80
2023-04-02T20:30:23.741Z,1.02
2023-04-02T20:32:50.347Z,0.70
2023-04-02T20:35:17.003Z,0.60
2023-04-02T20:37:43.956Z,0.52
2023-04-02T20:40:10.768Z,0.70
2023-04-02T20:42:37.306Z,0.80
2023-04-02T20:45:06.171Z,0.70
2023-04-02T20:47:32.646Z,0.60
2023-04-02T20:49:59.271Z,0.80
2023-04-02T20:52:27.896Z,0.80
2023-04-02T20:54:54.381Z,1.00
2023-04-02T20:57:22.003Z,0.70
2023-04-02T20:59:48.938Z,0.50
2023-04-02T21:02:15.658Z,0.68
2023-04-02T21:04:42.138Z,0.88
2023-04-02T21:07:08.589Z,0.50
2023-04-02T21:09:35.297Z,0.73
2023-04-02T21:12:05.064Z,0.80
2023-04-02T21:14:36.004Z,0.60
2023-04-02T21:17:02.444Z,0.88
2023-04-02T21:19:28.886Z,0.50
2023-04-02T21:21:55.444Z,1.10
2023-04-02T21:24:22.186Z,0.70
2023-04-02T21:26:48.719Z,0.85
2023-04-02T21:29:18.062Z,0.88
2023-04-02T21:31:44.584Z,0.80
2023-04-02T21:34:16.372Z,0.80
2023-04-02T21:36:45.539Z,0.73
2023-04-02T21:39:17.876Z,0.88
2023-04-02T21:41:46.839Z,0.90
2023-04-02T21:44:15.305Z,0.80
2023-04-02T21:46:43.402Z,0.82
2023-04-02T21:49:15.958Z,0.65
2023-04-02T21:51:44.085Z,0.88
2023-04-02T21:54:10.774Z,0.88
2023-04-02T21:56:40.433Z,0.98
2023-04-02T21:59:08.445Z,0.75
2023-04-02T22:01:38.665Z,0.88
2023-04-02T22:04:16.570Z,0.98
2023-04-02T22:06:44.127Z,0.95
2023-04-02T22:09:14.129Z,0.50
2023-04-02T22:11:44.361Z,0.82
2023-04-02T22:14:11.378Z,0.93
2023-04-02T22:16:39.131Z,1.00
2023-04-02T22:19:08.709Z,0.70
2023-04-02T22:21:36.276Z,1.05
2023-04-02T22:24:04.976Z,0.85
2023-04-02T22:26:32.452Z,0.80
2023-04-02T22:29:00.227Z,0.52
2023-04-02T22:31:29.082Z,0.40
2023-04-02T22:33:57.567Z,0.70
2023-04-02T22:36:26.251Z,0.57
2023-04-02T22:38:53.034Z,0.68
2023-04-02T22:41:23.315Z,0.55
2023-04-02T22:43:49.962Z,1.00
2023-04-02T22:46:18.350Z,0.77
2023-04-02T22:48:46.312Z,1.05
2023-04-02T22:51:14.943Z,0.50
2023-04-02T22:53:42.862Z,0.70
2023-04-02T22:56:21.615Z,0.82
2023-04-02T22:58:48.706Z,0.70
2023-04-02T23:01:21.931Z,0.50
2023-04-02T23:03:49.054Z,0.90
2023-04-02T23:06:17.740Z,0.90
2023-04-02T23:08:45.289Z,0.73
2023-04-02T23:11:13.167Z,0.75
2023-04-02T23:13:40.484Z,0.70
2023-04-02T23:16:10.566Z,0.80
2023-04-02T23:18:38.439Z,0.60
2023-04-02T23:21:06.304Z,1.08
2023-04-02T23:23:33.560Z,0.60
2023-04-02T23:26:09.580Z,0.70
2023-04-02T23:28:37.659Z,0.70
2023-04-02T23:31:06.657Z,0.85
2023-04-02T23:33:34.233Z,0.70
2023-04-02T23:36:07.124Z,0.73
2023-04-02T23:38:33.788Z,0.70
2023-04-02T23:41:00.397Z,0.60
2023-04-02T23:43:27.460Z,1.00
2023-04-02T23:45:54.017Z,0.90
2023-04-02T23:48:20.659Z,0.80
2023-04-02T23:50:47.146Z,0.73
2023-04-02T23:53:13.773Z,1.13
2023-04-02T23:55:40.436Z,0.50
2023-04-02T23:58:07.052Z,1.45
